sensor_id;sensor_type;location;lat;lon;timestamp;P1;durP1;ratioP1;P2;durP2;ratioP2
43817;SDS011;29868;47.360;18.984;2023-02-15T05:41:15;72.38;;;27.83;;
43817;SDS011;29868;47.360;18.984;2023-02-15T05:43:40;78.50;;;30.10;;
43817;SDS011;29868;47.360;18.984;2023-02-15T05:46:06;83.35;;;30.55;;
43817;SDS011;29868;47.360;18.984;2023-02-15T05:48:32;77.28;;;29.95;;
43817;SDS011;29868;47.360;18.984;2023-02-15T05:50:59;79.70;;;30.45;;
43817;SDS011;29868;47.360;18.984;2023-02-15T05:53:26;73.22;;;29.90;;
43817;SDS011;29868;47.360;18.984;2023-02-15T05:55:52;79.47;;;30.92;;
43817;SDS011;29868;47.360;18.984;2023-02-15T05:58:19;79.25;;;30.13;;
43817;SDS011;29868;47.360;18.984;2023-02-15T06:00:45;77.38;;;30.85;;
43817;SDS011;29868;47.360;18.984;2023-02-15T06:03:10;78.85;;;30.13;;
43817;SDS011;29868;47.360;18.984;2023-02-15T06:05:36;88.55;;;31.58;;
43817;SDS011;29868;47.360;18.984;2023-02-15T06:08:01;84.57;;;30.98;;
43817;SDS011;29868;47.360;18.984;2023-02-15T06:10:26;80.55;;;32.47;;
43817;SDS011;29868;47.360;18.984;2023-02-15T06:12:52;80.18;;;30.15;;
43817;SDS011;29868;47.360;18.984;2023-02-15T06:15:17;87.90;;;32.90;;
43817;SDS011;29868;47.360;18.984;2023-02-15T06:17:43;76.28;;;31.70;;
43817;SDS011;29868;47.360;18.984;2023-02-15T06:20:09;81.40;;;32.78;;
43817;SDS011;29868;47.360;18.984;2023-02-15T06:22:35;88.28;;;35.33;;
43817;SDS011;29868;47.360;18.984;2023-02-15T06:25:00;101.53;;;41.70;;
43817;SDS011;29868;47.360;18.984;2023-02-15T06:27:26;91.45;;;38.65;;
43817;SDS011;29868;47.360;18.984;2023-02-15T06:29:51;103.13;;;43.30;;
43817;SDS011;29868;47.360;18.984;2023-02-15T06:32:17;96.07;;;39.70;;
43817;SDS011;29868;47.360;18.984;2023-02-15T06:34:42;99.90;;;40.33;;
43817;SDS011;29868;47.360;18.984;2023-02-15T06:37:07;102.88;;;41.17;;
43817;SDS011;29868;47.360;18.984;2023-02-15T06:39:33;99.93;;;39.70;;
43817;SDS011;29868;47.360;18.984;2023-02-15T06:41:59;103.13;;;42.65;;
43817;SDS011;29868;47.360;18.984;2023-02-15T06:44:24;105.38;;;41.45;;
43817;SDS011;29868;47.360;18.984;2023-02-15T06:46:49;99.45;;;40.28;;
43817;SDS011;29868;47.360;18.984;2023-02-15T06:49:15;101.32;;;41.15;;
43817;SDS011;29868;47.360;18.984;2023-02-15T06:51:40;103.03;;;42.70;;
43817;SDS011;29868;47.360;18.984;2023-02-15T06:54:06;109.25;;;44.90;;
43817;SDS011;29868;47.360;18.984;2023-02-15T06:56:31;108.65;;;43.22;;
43817;SDS011;29868;47.360;18.984;2023-02-15T06:58:57;103.47;;;41.75;;
43817;SDS011;29868;47.360;18.984;2023-02-15T07:01:22;89.60;;;37.72;;
43817;SDS011;29868;47.360;18.984;2023-02-15T07:03:48;90.53;;;37.47;;
43817;SDS011;29868;47.360;18.984;2023-02-15T07:06:13;96.15;;;37.17;;
43817;SDS011;29868;47.360;18.984;2023-02-15T07:08:39;88.43;;;37.08;;
43817;SDS011;29868;47.360;18.984;2023-02-15T07:11:04;88.38;;;39.13;;
43817;SDS011;29868;47.360;18.984;2023-02-15T07:13:49;124.85;;;45.55;;
43817;SDS011;29868;47.360;18.984;2023-02-15T07:16:15;115.32;;;47.47;;
43817;SDS011;29868;47.360;18.984;2023-02-15T07:18:40;131.93;;;51.00;;
43817;SDS011;29868;47.360;18.984;2023-02-15T07:21:06;129.98;;;52.22;;
43817;SDS011;29868;47.360;18.984;2023-02-15T07:23:35;129.98;;;50.53;;
43817;SDS011;29868;47.360;18.984;2023-02-15T07:26:05;110.47;;;46.65;;
43817;SDS011;29868;47.360;18.984;2023-02-15T07:28:32;106.82;;;44.15;;
43817;SDS011;29868;47.360;18.984;2023-02-15T07:31:00;110.53;;;45.50;;
43817;SDS011;29868;47.360;18.984;2023-02-15T07:33:32;109.05;;;46.83;;
43817;SDS011;29868;47.360;18.984;2023-02-15T07:35:59;116.22;;;47.08;;
43817;SDS011;29868;47.360;18.984;2023-02-15T07:38:27;99.28;;;42.70;;
43817;SDS011;29868;47.360;18.984;2023-02-15T07:41:00;110.32;;;43.10;;
43817;SDS011;29868;47.360;18.984;2023-02-15T07:43:27;104.40;;;42.42;;
43817;SDS011;29868;47.360;18.984;2023-02-15T07:45:53;97.32;;;43.72;;
43817;SDS011;29868;47.360;18.984;2023-02-15T07:48:18;90.43;;;39.70;;
43817;SDS011;29868;47.360;18.984;2023-02-15T07:50:44;90.38;;;38.20;;
43817;SDS011;29868;47.360;18.984;2023-02-15T07:53:10;88.00;;;36.58;;
43817;SDS011;29868;47.360;18.984;2023-02-15T07:55:35;85.00;;;37.55;;
43817;SDS011;29868;47.360;18.984;2023-02-15T07:58:01;82.80;;;35.20;;
43817;SDS011;29868;47.360;18.984;2023-02-15T08:00:27;83.13;;;36.10;;
43817;SDS011;29868;47.360;18.984;2023-02-15T08:02:55;83.32;;;36.55;;
43817;SDS011;29868;47.360;18.984;2023-02-15T08:05:39;91.05;;;39.42;;
43817;SDS011;29868;47.360;18.984;2023-02-15T08:08:06;90.90;;;38.60;;
43817;SDS011;29868;47.360;18.984;2023-02-15T08:10:32;85.18;;;38.95;;
43817;SDS011;29868;47.360;18.984;2023-02-15T08:13:16;91.13;;;39.25;;
43817;SDS011;29868;47.360;18.984;2023-02-15T08:15:49;83.68;;;37.92;;
43817;SDS011;29868;47.360;18.984;2023-02-15T08:18:14;85.60;;;37.38;;
43817;SDS011;29868;47.360;18.984;2023-02-15T08:20:40;84.93;;;37.83;;
43817;SDS011;29868;47.360;18.984;2023-02-15T08:23:06;81.32;;;37.10;;
43817;SDS011;29868;47.360;18.984;2023-02-15T08:25:31;80.75;;;36.78;;
43817;SDS011;29868;47.360;18.984;2023-02-15T08:27:58;80.82;;;35.83;;
43817;SDS011;29868;47.360;18.984;2023-02-15T08:30:24;73.85;;;35.38;;
43817;SDS011;29868;47.360;18.984;2023-02-15T08:32:50;80.00;;;35.22;;
43817;SDS011;29868;47.360;18.984;2023-02-15T08:35:15;82.13;;;36.42;;
43817;SDS011;29868;47.360;18.984;2023-02-15T08:37:41;69.93;;;34.17;;
43817;SDS011;29868;47.360;18.984;2023-02-15T08:40:07;73.47;;;35.53;;
43817;SDS011;29868;47.360;18.984;2023-02-15T08:42:33;76.45;;;34.08;;
43817;SDS011;29868;47.360;18.984;2023-02-15T08:44:59;76.72;;;35.75;;
43817;SDS011;29868;47.360;18.984;2023-02-15T08:47:24;74.32;;;34.83;;
43817;SDS011;29868;47.360;18.984;2023-02-15T08:49:50;69.35;;;33.38;;
43817;SDS011;29868;47.360;18.984;2023-02-15T08:52:16;71.18;;;32.40;;
43817;SDS011;29868;47.360;18.984;2023-02-15T08:54:41;61.45;;;30.33;;
43817;SDS011;29868;47.360;18.984;2023-02-15T08:57:07;62.08;;;29.85;;
43817;SDS011;29868;47.360;18.984;2023-02-15T08:59:33;59.95;;;28.55;;
43817;SDS011;29868;47.360;18.984;2023-02-15T09:01:58;57.47;;;27.73;;
43817;SDS011;29868;47.360;18.984;2023-02-15T09:04:24;60.92;;;28.77;;
43817;SDS011;29868;47.360;18.984;2023-02-15T09:06:49;62.22;;;29.42;;
43817;SDS011;29868;47.360;18.984;2023-02-15T09:09:16;57.35;;;28.48;;
43817;SDS011;29868;47.360;18.984;2023-02-15T09:11:44;59.15;;;29.73;;
43817;SDS011;29868;47.360;18.984;2023-02-15T09:14:12;60.00;;;28.13;;
43817;SDS011;29868;47.360;18.984;2023-02-15T09:16:44;60.47;;;28.58;;
43817;SDS011;29868;47.360;18.984;2023-02-15T09:19:13;56.17;;;28.63;;
43817;SDS011;29868;47.360;18.984;2023-02-15T09:21:39;60.30;;;29.10;;
43817;SDS011;29868;47.360;18.984;2023-02-15T09:24:06;56.28;;;27.73;;
43817;SDS011;29868;47.360;18.984;2023-02-15T09:26:34;59.17;;;27.98;;
43817;SDS011;29868;47.360;18.984;2023-02-15T09:29:01;53.58;;;26.13;;
43817;SDS011;29868;47.360;18.984;2023-02-15T09:31:29;54.88;;;27.27;;
43817;SDS011;29868;47.360;18.984;2023-02-15T09:33:59;56.95;;;29.05;;
43817;SDS011;29868;47.360;18.984;2023-02-15T09:36:29;65.60;;;32.05;;
43817;SDS011;29868;47.360;18.984;2023-02-15T09:50:37;47.20;;;24.20;;
43817;SDS011;29868;47.360;18.984;2023-02-15T10:01:28;51.92;;;25.58;;
43817;SDS011;29868;47.360;18.984;2023-02-15T10:09:36;54.30;;;26.98;;
43817;SDS011;29868;47.360;18.984;2023-02-15T10:12:57;48.38;;;26.35;;
43817;SDS011;29868;47.360;18.984;2023-02-15T10:18:04;45.25;;;21.88;;
43817;SDS011;29868;47.360;18.984;2023-02-15T10:23:45;41.42;;;20.70;;
43817;SDS011;29868;47.360;18.984;2023-02-15T10:26:46;42.85;;;21.67;;
43817;SDS011;29868;47.360;18.984;2023-02-15T10:45:36;50.33;;;26.17;;
43817;SDS011;29868;47.360;18.984;2023-02-15T10:57:57;36.97;;;18.48;;
43817;SDS011;29868;47.360;18.984;2023-02-15T11:05:54;37.92;;;19.52;;
43817;SDS011;29868;47.360;18.984;2023-02-15T11:08:22;39.22;;;20.20;;
43817;SDS011;29868;47.360;18.984;2023-02-15T11:10:52;37.90;;;20.48;;
43817;SDS011;29868;47.360;18.984;2023-02-15T11:13:22;38.85;;;21.02;;
43817;SDS011;29868;47.360;18.984;2023-02-15T11:15:56;37.70;;;20.13;;
43817;SDS011;29868;47.360;18.984;2023-02-15T11:20:57;37.08;;;19.45;;
43817;SDS011;29868;47.360;18.984;2023-02-15T11:23:23;31.02;;;16.23;;
43817;SDS011;29868;47.360;18.984;2023-02-15T11:25:58;27.52;;;15.13;;
43817;SDS011;29868;47.360;18.984;2023-02-15T11:28:31;29.70;;;15.63;;
43817;SDS011;29868;47.360;18.984;2023-02-15T11:31:02;30.27;;;15.13;;
43817;SDS011;29868;47.360;18.984;2023-02-15T11:33:39;31.25;;;16.73;;
43817;SDS011;29868;47.360;18.984;2023-02-15T11:36:15;31.42;;;16.92;;
43817;SDS011;29868;47.360;18.984;2023-02-15T11:38:45;29.35;;;16.63;;
43817;SDS011;29868;47.360;18.984;2023-02-15T11:41:16;29.80;;;15.95;;
43817;SDS011;29868;47.360;18.984;2023-02-15T11:43:56;31.27;;;17.40;;
43817;SDS011;29868;47.360;18.984;2023-02-15T11:46:22;32.83;;;17.83;;
43817;SDS011;29868;47.360;18.984;2023-02-15T11:48:48;32.50;;;18.00;;
43817;SDS011;29868;47.360;18.984;2023-02-15T11:51:14;35.13;;;17.90;;
43817;SDS011;29868;47.360;18.984;2023-02-15T11:53:42;33.88;;;17.63;;
43817;SDS011;29868;47.360;18.984;2023-02-15T11:56:17;30.15;;;16.85;;
43817;SDS011;29868;47.360;18.984;2023-02-15T11:58:50;36.38;;;19.98;;
43817;SDS011;29868;47.360;18.984;2023-02-15T12:01:44;35.55;;;18.63;;
43817;SDS011;29868;47.360;18.984;2023-02-15T12:04:28;36.22;;;20.02;;
43817;SDS011;29868;47.360;18.984;2023-02-15T12:07:03;37.80;;;19.60;;
43817;SDS011;29868;47.360;18.984;2023-02-15T12:13:14;38.03;;;20.98;;
43817;SDS011;29868;47.360;18.984;2023-02-15T12:15:42;39.22;;;20.27;;
43817;SDS011;29868;47.360;18.984;2023-02-15T12:21:02;39.50;;;20.38;;
43817;SDS011;29868;47.360;18.984;2023-02-15T12:23:31;40.78;;;21.27;;
43817;SDS011;29868;47.360;18.984;2023-02-15T12:25:58;39.85;;;20.10;;
43817;SDS011;29868;47.360;18.984;2023-02-15T12:31:27;34.00;;;18.50;;
43817;SDS011;29868;47.360;18.984;2023-02-15T12:33:59;34.65;;;19.80;;
43817;SDS011;29868;47.360;18.984;2023-02-15T12:36:40;38.67;;;20.20;;
43817;SDS011;29868;47.360;18.984;2023-02-15T12:41:36;40.03;;;21.20;;
43817;SDS011;29868;47.360;18.984;2023-02-15T12:47:03;38.97;;;20.02;;
43817;SDS011;29868;47.360;18.984;2023-02-15T12:49:41;38.05;;;20.52;;
43817;SDS011;29868;47.360;18.984;2023-02-15T12:54:48;39.80;;;20.73;;
43817;SDS011;29868;47.360;18.984;2023-02-15T13:02:29;37.95;;;19.02;;
43817;SDS011;29868;47.360;18.984;2023-02-15T13:05:10;35.92;;;18.13;;
43817;SDS011;29868;47.360;18.984;2023-02-15T13:07:44;38.10;;;19.05;;
43817;SDS011;29868;47.360;18.984;2023-02-15T13:10:22;36.00;;;18.50;;
43817;SDS011;29868;47.360;18.984;2023-02-15T13:12:56;34.53;;;17.42;;
43817;SDS011;29868;47.360;18.984;2023-02-15T13:15:27;34.22;;;18.40;;
43817;SDS011;29868;47.360;18.984;2023-02-15T13:17:58;34.67;;;18.65;;
43817;SDS011;29868;47.360;18.984;2023-02-15T13:20:25;33.33;;;17.85;;
43817;SDS011;29868;47.360;18.984;2023-02-15T13:22:55;37.80;;;17.90;;
43817;SDS011;29868;47.360;18.984;2023-02-15T13:25:40;30.83;;;16.25;;
43817;SDS011;29868;47.360;18.984;2023-02-15T13:28:15;29.48;;;16.33;;
43817;SDS011;29868;47.360;18.984;2023-02-15T13:30:44;30.98;;;16.73;;
43817;SDS011;29868;47.360;18.984;2023-02-15T13:33:23;31.27;;;16.25;;
43817;SDS011;29868;47.360;18.984;2023-02-15T13:36:16;30.48;;;17.05;;
43817;SDS011;29868;47.360;18.984;2023-02-15T13:41:43;32.35;;;17.10;;
43817;SDS011;29868;47.360;18.984;2023-02-15T13:52:35;35.72;;;18.85;;
43817;SDS011;29868;47.360;18.984;2023-02-15T13:55:19;35.88;;;18.67;;
43817;SDS011;29868;47.360;18.984;2023-02-15T13:58:27;34.67;;;18.45;;
43817;SDS011;29868;47.360;18.984;2023-02-15T14:01:15;35.25;;;18.42;;
43817;SDS011;29868;47.360;18.984;2023-02-15T14:20:51;54.70;;;24.25;;
43817;SDS011;29868;47.360;18.984;2023-02-15T14:29:38;65.65;;;27.98;;
43817;SDS011;29868;47.360;18.984;2023-02-15T14:32:04;42.47;;;20.30;;
43817;SDS011;29868;47.360;18.984;2023-02-15T14:37:19;34.22;;;17.50;;
43817;SDS011;29868;47.360;18.984;2023-02-15T14:40:05;30.65;;;16.52;;
43817;SDS011;29868;47.360;18.984;2023-02-15T14:48:28;31.48;;;16.38;;
43817;SDS011;29868;47.360;18.984;2023-02-15T14:50:56;29.05;;;15.30;;
43817;SDS011;29868;47.360;18.984;2023-02-15T15:01:24;28.70;;;15.43;;
43817;SDS011;29868;47.360;18.984;2023-02-15T15:04:08;31.90;;;15.73;;
43817;SDS011;29868;47.360;18.984;2023-02-15T15:06:39;29.88;;;17.20;;
43817;SDS011;29868;47.360;18.984;2023-02-15T15:09:20;35.03;;;18.05;;
43817;SDS011;29868;47.360;18.984;2023-02-15T15:11:55;35.83;;;18.38;;
43817;SDS011;29868;47.360;18.984;2023-02-15T15:14:41;31.52;;;17.00;;
43817;SDS011;29868;47.360;18.984;2023-02-15T15:20:00;36.83;;;16.33;;
43817;SDS011;29868;47.360;18.984;2023-02-15T15:22:38;32.22;;;16.90;;
43817;SDS011;29868;47.360;18.984;2023-02-15T15:27:58;34.30;;;15.52;;
43817;SDS011;29868;47.360;18.984;2023-02-15T15:32:53;32.33;;;15.57;;
43817;SDS011;29868;47.360;18.984;2023-02-15T15:50:14;38.78;;;18.48;;
43817;SDS011;29868;47.360;18.984;2023-02-15T15:52:50;44.42;;;21.40;;
43817;SDS011;29868;47.360;18.984;2023-02-15T15:55:23;46.13;;;21.30;;
43817;SDS011;29868;47.360;18.984;2023-02-15T15:57:52;51.88;;;26.40;;
43817;SDS011;29868;47.360;18.984;2023-02-15T16:02:57;71.75;;;33.75;;
43817;SDS011;29868;47.360;18.984;2023-02-15T16:05:23;80.40;;;38.78;;
43817;SDS011;29868;47.360;18.984;2023-02-15T16:07:48;85.93;;;39.97;;
43817;SDS011;29868;47.360;18.984;2023-02-15T16:10:25;82.53;;;39.15;;
43817;SDS011;29868;47.360;18.984;2023-02-15T16:12:52;70.80;;;32.08;;
43817;SDS011;29868;47.360;18.984;2023-02-15T16:18:15;66.38;;;30.92;;
43817;SDS011;29868;47.360;18.984;2023-02-15T16:20:42;59.28;;;27.85;;
43817;SDS011;29868;47.360;18.984;2023-02-15T16:28:54;74.25;;;33.13;;
43817;SDS011;29868;47.360;18.984;2023-02-15T16:31:20;71.55;;;33.53;;
43817;SDS011;29868;47.360;18.984;2023-02-15T16:33:52;64.10;;;31.77;;
43817;SDS011;29868;47.360;18.984;2023-02-15T16:36:26;63.30;;;30.52;;
43817;SDS011;29868;47.360;18.984;2023-02-15T16:41:22;73.70;;;34.95;;
43817;SDS011;29868;47.360;18.984;2023-02-15T16:43:50;70.75;;;32.38;;
43817;SDS011;29868;47.360;18.984;2023-02-15T16:46:28;71.30;;;32.17;;
43817;SDS011;29868;47.360;18.984;2023-02-15T16:48:58;71.22;;;30.75;;
43817;SDS011;29868;47.360;18.984;2023-02-15T16:51:32;74.80;;;33.05;;
43817;SDS011;29868;47.360;18.984;2023-02-15T16:54:06;76.47;;;33.88;;
43817;SDS011;29868;47.360;18.984;2023-02-15T16:56:33;69.88;;;32.58;;
43817;SDS011;29868;47.360;18.984;2023-02-15T16:58:59;78.13;;;33.50;;
43817;SDS011;29868;47.360;18.984;2023-02-15T17:01:27;73.35;;;33.80;;
43817;SDS011;29868;47.360;18.984;2023-02-15T17:07:24;82.50;;;36.37;;
43817;SDS011;29868;47.360;18.984;2023-02-15T17:09:50;81.15;;;35.60;;
43817;SDS011;29868;47.360;18.984;2023-02-15T17:18:17;86.63;;;38.63;;
43817;SDS011;29868;47.360;18.984;2023-02-15T17:20:44;89.15;;;40.33;;
43817;SDS011;29868;47.360;18.984;2023-02-15T17:25:58;92.50;;;38.95;;
43817;SDS011;29868;47.360;18.984;2023-02-15T17:28:30;90.28;;;37.65;;
43817;SDS011;29868;47.360;18.984;2023-02-15T17:30:56;87.22;;;38.78;;
43817;SDS011;29868;47.360;18.984;2023-02-15T17:41:35;94.65;;;38.95;;
43817;SDS011;29868;47.360;18.984;2023-02-15T17:44:02;92.80;;;39.88;;
43817;SDS011;29868;47.360;18.984;2023-02-15T17:46:29;90.28;;;39.90;;
43817;SDS011;29868;47.360;18.984;2023-02-15T17:49:01;80.72;;;38.45;;
43817;SDS011;29868;47.360;18.984;2023-02-15T17:51:27;92.43;;;41.53;;
43817;SDS011;29868;47.360;18.984;2023-02-15T17:53:53;95.13;;;41.55;;
43817;SDS011;29868;47.360;18.984;2023-02-15T17:56:37;96.22;;;40.95;;
43817;SDS011;29868;47.360;18.984;2023-02-15T17:59:03;100.30;;;43.30;;
43817;SDS011;29868;47.360;18.984;2023-02-15T18:01:34;105.63;;;42.00;;
43817;SDS011;29868;47.360;18.984;2023-02-15T18:04:22;110.82;;;45.55;;
43817;SDS011;29868;47.360;18.984;2023-02-15T18:07:08;112.40;;;45.75;;
43817;SDS011;29868;47.360;18.984;2023-02-15T18:09:53;114.93;;;48.63;;
43817;SDS011;29868;47.360;18.984;2023-02-15T18:12:37;161.70;;;66.80;;
43817;SDS011;29868;47.360;18.984;2023-02-15T18:15:03;159.35;;;70.18;;
43817;SDS011;29868;47.360;18.984;2023-02-15T18:17:33;176.00;;;77.13;;
43817;SDS011;29868;47.360;18.984;2023-02-15T18:20:02;185.20;;;79.80;;
43817;SDS011;29868;47.360;18.984;2023-02-15T18:22:30;149.82;;;69.38;;
43817;SDS011;29868;47.360;18.984;2023-02-15T18:24:56;153.35;;;67.20;;
43817;SDS011;29868;47.360;18.984;2023-02-15T18:27:22;145.93;;;61.40;;
43817;SDS011;29868;47.360;18.984;2023-02-15T18:29:48;147.88;;;61.92;;
43817;SDS011;29868;47.360;18.984;2023-02-15T18:32:25;136.07;;;58.03;;
43817;SDS011;29868;47.360;18.984;2023-02-15T18:34:56;132.95;;;57.15;;
43817;SDS011;29868;47.360;18.984;2023-02-15T18:37:28;145.85;;;57.65;;
43817;SDS011;29868;47.360;18.984;2023-02-15T18:39:57;131.07;;;56.22;;
43817;SDS011;29868;47.360;18.984;2023-02-15T18:42:25;138.38;;;56.63;;
43817;SDS011;29868;47.360;18.984;2023-02-15T18:44:56;142.23;;;57.38;;
43817;SDS011;29868;47.360;18.984;2023-02-15T18:47:24;134.02;;;56.40;;
43817;SDS011;29868;47.360;18.984;2023-02-15T18:49:49;151.02;;;62.97;;
43817;SDS011;29868;47.360;18.984;2023-02-15T18:52:16;142.75;;;58.58;;
43817;SDS011;29868;47.360;18.984;2023-02-15T18:54:44;136.95;;;55.33;;
43817;SDS011;29868;47.360;18.984;2023-02-15T18:57:11;133.70;;;53.47;;
43817;SDS011;29868;47.360;18.984;2023-02-15T18:59:38;131.32;;;53.30;;
43817;SDS011;29868;47.360;18.984;2023-02-15T19:02:08;137.73;;;57.35;;
43817;SDS011;29868;47.360;18.984;2023-02-15T19:04:38;146.68;;;59.97;;
43817;SDS011;29868;47.360;18.984;2023-02-15T19:07:03;153.20;;;64.35;;
43817;SDS011;29868;47.360;18.984;2023-02-15T19:09:29;145.45;;;60.35;;
43817;SDS011;29868;47.360;18.984;2023-02-15T19:11:55;155.40;;;64.93;;
43817;SDS011;29868;47.360;18.984;2023-02-15T19:14:24;151.10;;;65.75;;
43817;SDS011;29868;47.360;18.984;2023-02-15T19:16:54;155.18;;;65.80;;
43817;SDS011;29868;47.360;18.984;2023-02-15T19:19:20;160.02;;;68.60;;
43817;SDS011;29868;47.360;18.984;2023-02-15T19:21:46;157.85;;;70.07;;
43817;SDS011;29868;47.360;18.984;2023-02-15T19:24:17;155.98;;;68.38;;
43817;SDS011;29868;47.360;18.984;2023-02-15T19:26:45;155.45;;;69.13;;
43817;SDS011;29868;47.360;18.984;2023-02-15T19:29:13;161.90;;;68.13;;
43817;SDS011;29868;47.360;18.984;2023-02-15T19:31:49;158.32;;;63.85;;
43817;SDS011;29868;47.360;18.984;2023-02-15T19:34:15;152.73;;;66.22;;
43817;SDS011;29868;47.360;18.984;2023-02-15T19:36:42;152.52;;;66.40;;
43817;SDS011;29868;47.360;18.984;2023-02-15T19:39:42;151.48;;;65.47;;
43817;SDS011;29868;47.360;18.984;2023-02-15T19:42:04;151.38;;;64.30;;
43817;SDS011;29868;47.360;18.984;2023-02-15T19:44:30;155.05;;;64.18;;
43817;SDS011;29868;47.360;18.984;2023-02-15T19:46:56;142.43;;;63.72;;
43817;SDS011;29868;47.360;18.984;2023-02-15T19:49:21;158.32;;;66.07;;
43817;SDS011;29868;47.360;18.984;2023-02-15T19:51:47;144.45;;;63.90;;
43817;SDS011;29868;47.360;18.984;2023-02-15T19:54:18;143.18;;;63.72;;
43817;SDS011;29868;47.360;18.984;2023-02-15T19:56:44;147.00;;;61.00;;
43817;SDS011;29868;47.360;18.984;2023-02-15T19:59:19;156.88;;;61.78;;
43817;SDS011;29868;47.360;18.984;2023-02-15T20:01:47;147.50;;;64.43;;
43817;SDS011;29868;47.360;18.984;2023-02-15T20:04:13;151.60;;;65.25;;
43817;SDS011;29868;47.360;18.984;2023-02-15T20:06:38;152.13;;;63.08;;
43817;SDS011;29868;47.360;18.984;2023-02-15T20:09:04;147.00;;;62.95;;
43817;SDS011;29868;47.360;18.984;2023-02-15T20:11:29;145.65;;;61.15;;
43817;SDS011;29868;47.360;18.984;2023-02-15T20:13:55;146.93;;;61.25;;
43817;SDS011;29868;47.360;18.984;2023-02-15T20:16:20;145.15;;;60.60;;
43817;SDS011;29868;47.360;18.984;2023-02-15T20:18:45;138.07;;;57.92;;
43817;SDS011;29868;47.360;18.984;2023-02-15T20:21:12;141.48;;;59.03;;
43817;SDS011;29868;47.360;18.984;2023-02-15T20:23:40;138.93;;;58.58;;
43817;SDS011;29868;47.360;18.984;2023-02-15T20:26:11;136.70;;;58.63;;
43817;SDS011;29868;47.360;18.984;2023-02-15T20:28:38;136.80;;;60.05;;
43817;SDS011;29868;47.360;18.984;2023-02-15T20:31:04;144.30;;;59.63;;
43817;SDS011;29868;47.360;18.984;2023-02-15T20:33:30;143.20;;;61.42;;
43817;SDS011;29868;47.360;18.984;2023-02-15T20:35:55;143.20;;;59.75;;
43817;SDS011;29868;47.360;18.984;2023-02-15T20:38:26;147.18;;;61.92;;
43817;SDS011;29868;47.360;18.984;2023-02-15T20:40:54;147.95;;;62.75;;
43817;SDS011;29868;47.360;18.984;2023-02-15T20:43:39;153.07;;;61.60;;
43817;SDS011;29868;47.360;18.984;2023-02-15T20:46:04;139.43;;;59.17;;
43817;SDS011;29868;47.360;18.984;2023-02-15T20:48:31;141.60;;;59.05;;
43817;SDS011;29868;47.360;18.984;2023-02-15T20:50:56;145.05;;;59.38;;
43817;SDS011;29868;47.360;18.984;2023-02-15T20:53:23;152.23;;;63.03;;
43817;SDS011;29868;47.360;18.984;2023-02-15T20:55:49;151.02;;;61.42;;
43817;SDS011;29868;47.360;18.984;2023-02-15T20:58:19;140.05;;;59.38;;
43817;SDS011;29868;47.360;18.984;2023-02-15T21:00:46;150.38;;;63.35;;
43817;SDS011;29868;47.360;18.984;2023-02-15T21:03:12;151.98;;;63.38;;
43817;SDS011;29868;47.360;18.984;2023-02-15T21:05:38;158.32;;;67.43;;
43817;SDS011;29868;47.360;18.984;2023-02-15T21:08:09;164.20;;;68.07;;
43817;SDS011;29868;47.360;18.984;2023-02-15T21:10:37;156.32;;;65.10;;
43817;SDS011;29868;47.360;18.984;2023-02-15T21:13:02;155.55;;;65.32;;
43817;SDS011;29868;47.360;18.984;2023-02-15T21:15:35;183.80;;;74.97;;
43817;SDS011;29868;47.360;18.984;2023-02-15T21:18:05;166.73;;;74.25;;
43817;SDS011;29868;47.360;18.984;2023-02-15T21:20:38;164.07;;;70.20;;
43817;SDS011;29868;47.360;18.984;2023-02-15T21:23:10;179.25;;;74.55;;
43817;SDS011;29868;47.360;18.984;2023-02-15T21:25:37;185.23;;;78.40;;
43817;SDS011;29868;47.360;18.984;2023-02-15T21:28:04;185.40;;;76.88;;
43817;SDS011;29868;47.360;18.984;2023-02-15T21:30:32;177.50;;;75.97;;
43817;SDS011;29868;47.360;18.984;2023-02-15T21:32:58;169.40;;;70.13;;
43817;SDS011;29868;47.360;18.984;2023-02-15T21:35:23;156.77;;;65.47;;
43817;SDS011;29868;47.360;18.984;2023-02-15T21:37:50;157.40;;;66.28;;
43817;SDS011;29868;47.360;18.984;2023-02-15T21:40:21;170.85;;;70.75;;
43817;SDS011;29868;47.360;18.984;2023-02-15T21:42:50;158.75;;;66.30;;
43817;SDS011;29868;47.360;18.984;2023-02-15T21:45:34;168.43;;;69.72;;
43817;SDS011;29868;47.360;18.984;2023-02-15T21:48:18;162.27;;;68.20;;
43817;SDS011;29868;47.360;18.984;2023-02-15T21:50:45;167.35;;;68.57;;
43817;SDS011;29868;47.360;18.984;2023-02-15T21:53:31;162.23;;;65.07;;
43817;SDS011;29868;47.360;18.984;2023-02-15T21:56:00;150.95;;;64.05;;
43817;SDS011;29868;47.360;18.984;2023-02-15T21:58:28;149.25;;;63.63;;
43817;SDS011;29868;47.360;18.984;2023-02-15T22:00:56;149.43;;;62.08;;
43817;SDS011;29868;47.360;18.984;2023-02-15T22:03:24;151.45;;;62.65;;
43817;SDS011;29868;47.360;18.984;2023-02-15T22:06:00;132.77;;;57.45;;
43817;SDS011;29868;47.360;18.984;2023-02-15T22:08:26;147.43;;;58.85;;
43817;SDS011;29868;47.360;18.984;2023-02-15T22:10:52;141.32;;;57.40;;
43817;SDS011;29868;47.360;18.984;2023-02-15T22:13:24;138.88;;;56.95;;
43817;SDS011;29868;47.360;18.984;2023-02-15T22:15:50;146.50;;;62.75;;
43817;SDS011;29868;47.360;18.984;2023-02-15T22:18:25;151.80;;;59.38;;
43817;SDS011;29868;47.360;18.984;2023-02-15T22:20:53;130.32;;;55.58;;
43817;SDS011;29868;47.360;18.984;2023-02-15T22:23:20;132.98;;;55.88;;
43817;SDS011;29868;47.360;18.984;2023-02-15T22:25:50;137.70;;;58.92;;
43817;SDS011;29868;47.360;18.984;2023-02-15T22:28:20;135.60;;;56.63;;
43817;SDS011;29868;47.360;18.984;2023-02-15T22:30:50;143.63;;;60.47;;
43817;SDS011;29868;47.360;18.984;2023-02-15T22:33:23;139.70;;;58.88;;
43817;SDS011;29868;47.360;18.984;2023-02-15T22:35:58;138.38;;;58.00;;
43817;SDS011;29868;47.360;18.984;2023-02-15T22:38:24;144.77;;;58.05;;
43817;SDS011;29868;47.360;18.984;2023-02-15T22:40:51;148.52;;;62.22;;
43817;SDS011;29868;47.360;18.984;2023-02-15T22:43:41;163.32;;;65.78;;
43817;SDS011;29868;47.360;18.984;2023-02-15T22:46:10;151.07;;;64.57;;
43817;SDS011;29868;47.360;18.984;2023-02-15T22:48:40;153.43;;;64.22;;
43817;SDS011;29868;47.360;18.984;2023-02-15T22:51:08;157.27;;;66.50;;
43817;SDS011;29868;47.360;18.984;2023-02-15T22:53:37;166.05;;;69.03;;
43817;SDS011;29868;47.360;18.984;2023-02-15T22:56:03;169.35;;;66.63;;
43817;SDS011;29868;47.360;18.984;2023-02-15T22:58:31;186.15;;;73.03;;
43817;SDS011;29868;47.360;18.984;2023-02-15T23:00:58;172.10;;;68.95;;
43817;SDS011;29868;47.360;18.984;2023-02-15T23:03:26;163.48;;;66.20;;
43817;SDS011;29868;47.360;18.984;2023-02-15T23:05:55;164.88;;;68.22;;
43817;SDS011;29868;47.360;18.984;2023-02-15T23:08:20;165.07;;;66.03;;
43817;SDS011;29868;47.360;18.984;2023-02-15T23:10:48;174.95;;;66.10;;
43817;SDS011;29868;47.360;18.984;2023-02-15T23:13:21;163.55;;;65.65;;
43817;SDS011;29868;47.360;18.984;2023-02-15T23:15:51;158.48;;;63.63;;